FNUE

Luena Airport

Luena, Angola
TAF FNUE 141045Z 1412/1424 VRB03KT 9999 SCT030 PROB30 TEMPO 1414/1418 7000 -TSRA BKN022 FEW025CB
Issued Valid From Valid To
Dec-14 @ 10:45 UTC
(11 hours ago)
Dec-14 @ 12:00 UTC
(10 hours ago)
Dec-15 @ 00:00 UTC
(in 2 hours)
Dec-14 @ 12:00 to Dec-15 @ 00:00
TAF FNUE 141045Z 1412/1424 VRB03KT 9999 SCT030
Wind Visibility Clouds
Variable at 3 knots 10,000+ meters
  • Scattered at 3,000' AGL
Expired Click to View Dec-14 @ 14:00 to Dec-14 @ 18:00
PROB30 TEMPO 1414/1418 7000 -TSRA BKN022 FEW025CB
Visibility Clouds Conditions
7,001 meters
  • Broken at 2,200' AGL
  • Few at 2,500' AGL
  • Light Thunderstorm
  • Light Rain
TAF FNUE 141045Z 1412/1424 VRB03KT 9999 SCT030 PROB30 TEMPO 1414/1418 7000 -TSRA BKN022 FEW025CB
Issued Dec-14 @ 10:45 UTC
(11 hours ago)
Valid From Dec-14 @ 12:00 UTC
(10 hours ago)
Valid To Dec-15 @ 00:00 UTC
(in 2 hours)
Dec-14 @ 12:00 - Dec-15 @ 00:00
Wind Visibility
Variable at 3 knots 10,000+ meters
Clouds
  • Scattered at 3,000' AGL
Dec-14 @ 14:00 - Dec-14 @ 18:00
Clouds
  • Broken at 2,200' AGL
  • Few at 2,500' AGL
Conditions
  • Light Thunderstorm
  • Light Rain